• Join FlightAware (Why Join?)
  • Login
  • US Flag 
08:27AM EST


 

Airport Tracker/Info


-or-


 

Live Flight TrackerFlight Track Log ✈ AVN11 ✈ 03-Jul-2014 ✈ YSSY / SYD - NVVV / VLI

Flight Track Log - Related Links

Times and Time Zones

All times are in EDT time to prevent confusion due to time zone crossing. See the AVN11 flight status page for this flight to view local times or setup timezone preferences in your user account.

Time Position Orientation Groundspeed Altitude Reporting Facility
EDT Latitude Longitude Course Direction KTS MPH feet Rate Location/Type
09:22PM -33.9421 151.1864 348° North 166 191 300  Level FlightAware ADS-B (YWST)
09:22PM -33.9350 151.1857 23° Northeast 177 204 800 1,800 Climbing FlightAware ADS-B
09:22PM -33.9263 151.1899 35° Northeast 178 205 900 1,500 Climbing FlightAware ADS-B (YRAY)
09:22PM -33.9227 151.1948 52° Northeast 180 207 1,100 2,100 Climbing FlightAware ADS-B
09:23PM -33.9205 151.2077 95° East 182 209 1,600 2,280 Climbing FlightAware ADS-B (YRAY)
09:23PM -33.9227 151.1948 107° East 183 211 1,800 1,980 Climbing FlightAware ADS-B
09:23PM -33.9231 151.2168 112° Southeast 183 211 1,900 900 Climbing FlightAware ADS-B (YRAY)
09:23PM -33.9289 151.2301 118° Southeast 204 235 2,100 1,200 Climbing FlightAware ADS-B (YWST)
09:23PM -33.9354 151.2461 112° Southeast 220 253 2,500 2,160 Climbing FlightAware ADS-B (YRAY)
09:23PM -33.9334 151.2407 107° East 221 254 2,800 2,460 Climbing FlightAware ADS-B
09:23PM -33.9219 151.2135 88° East 228 262 3,200 1,860 Climbing FlightAware ADS-B (YFHO)
09:24PM -33.9365 151.2897 90° East 243 280 3,700 1,680 Climbing FlightAware ADS-B (YRAY)
09:24PM -33.9362 151.3005 88° East 260 299 4,000 1,260 Climbing FlightAware ADS-B (YWST)
09:24PM -33.9355 151.3232 89° East 283 326 4,200 1,020 Climbing FlightAware ADS-B (YRAY)
09:24PM -33.9342 151.3512 87° East 307 353 4,500 1,020 Climbing FlightAware ADS-B
09:25PM -33.9332 151.3746 87° East 328 377 4,800 360 Climbing FlightAware ADS-B (YFHO)
09:25PM -33.9321 151.4034 88° East 334 384 4,700 -240 Descending FlightAware ADS-B (YWST)
09:25PM -33.9312 151.4303 88° East 335 386 4,700 480 Level FlightAware ADS-B (YFHO)
09:25PM -33.9299 151.4676 88° East 337 388 5,000 2,100 Climbing FlightAware ADS-B
09:26PM -33.9298 151.4712 88° East 337 388 5,800 3,060 Climbing FlightAware ADS-B (YFHO)
09:26PM -33.9275 151.5410 88° East 341 392 7,000 2,820 Climbing FlightAware ADS-B (YFHO)
09:26PM -33.9267 151.5633 87° East 347 399 7,700 2,460 Climbing FlightAware ADS-B (YFHO)
09:27PM -33.9256 151.5925 87° East 352 405 8,300 2,580 Climbing FlightAware ADS-B (YFHO)
09:27PM -33.9242 151.6285 87° East 356 410 9,000 3,000 Climbing FlightAware ADS-B (YFHO)
09:27PM -33.9227 151.6678 87° East 359 413 10,000 2,400 Climbing FlightAware ADS-B (YFHO)
09:28PM -33.9205 151.7231 87° East 375 432 11,000 2,160 Climbing FlightAware ADS-B (YFHO)
09:28PM -33.9177 151.7956 87° East 387 445 12,200 2,040 Climbing FlightAware ADS-B (YFHO)
09:29PM -33.9150 151.8609 87° East 406 467 13,100 1,800 Climbing FlightAware ADS-B (YSSY / SYD)
09:29PM -33.9059 151.9050 69° East 414 476 13,700 2,160 Climbing FlightAware ADS-B (YFHO)
09:29PM -33.9036 151.9109 61° Northeast 416 479 14,000 2,160 Climbing FlightAware ADS-B (YFHO)
09:29PM -33.8790 151.9528 49° Northeast 418 481 14,600 2,160 Climbing FlightAware ADS-B (YFHO)
09:30PM -33.8374 152.0081 48° Northeast 426 490 15,900 2,280 Climbing FlightAware ADS-B (YFHO)
09:30PM -33.7956 152.0642 48° Northeast 430 495 17,000 1,920 Climbing FlightAware ADS-B (YFHO)
09:31PM -33.7675 152.1022 48° Northeast 436 502 17,900 1,680 Climbing FlightAware ADS-B (YWST)
09:31PM -33.7341 152.1472 49° Northeast 444 511 18,300 1,680 Climbing FlightAware ADS-B
09:32PM -33.6973 152.1969 48° Northeast 452 520 19,200 1,800 Climbing FlightAware ADS-B (YFHO)
09:32PM -33.6512 152.2589 48° Northeast 456 525 20,100 1,800 Climbing FlightAware ADS-B (YFHO)
09:33PM -33.6268 152.2916 48° Northeast 463 533 21,100 1,920 Climbing FlightAware ADS-B (YFHO)
09:33PM -33.5746 152.3617 49° Northeast 466 536 22,100 1,980 Climbing FlightAware ADS-B (YFHO)
09:34PM -33.5108 152.4479 48° Northeast 472 543 22,900 1,620 Climbing FlightAware ADS-B (YPLB)
09:34PM -33.4478 152.5326 48° Northeast 481 554 23,900 1,500 Climbing FlightAware ADS-B (YPLB)
09:34PM -33.4667 152.5076 48° Northeast 475 547 24,000 780 Climbing Aus ATC (RADAR)
09:35PM -33.4235 152.5652 48° Northeast 485 558 24,300 1,200 Climbing FlightAware ADS-B (YSSY / SYD)
09:36PM -33.3436 152.6723 48° Northeast 493 567 25,400 1,440 Climbing FlightAware ADS-B (YPLB)
09:36PM -33.2853 152.7504 48° Northeast 498 573 26,200 960 Climbing FlightAware ADS-B (YPLB)
09:37PM -33.2519 152.7948 48° Northeast 501 577 26,700 1,260 Climbing FlightAware ADS-B (YSSY / SYD)
09:37PM -33.1760 152.8954 48° Northeast 503 579 27,700 1,020 Climbing FlightAware ADS-B (YPLB)
09:38PM -33.1381 152.9458 48° Northeast 511 588 27,900 840 Climbing FlightAware ADS-B (YSSY / SYD)
09:39PM -33.0665 153.0413 48° Northeast 512 589 28,700 1,320 Climbing FlightAware ADS-B (YPLB)
09:39PM -33.0380 153.0791 48° Northeast 507 583 29,300 1,860 Climbing FlightAware ADS-B (YSSY / SYD)
09:40PM -32.9710 153.1678 48° Northeast 495 570 30,600 1,680 Climbing FlightAware ADS-B (YPLB)
09:40PM -32.9417 153.2066 48° Northeast 494 568 31,100 1,200 Climbing FlightAware ADS-B (YSSY / SYD)
09:41PM -32.8665 153.3056 48° Northeast 494 568 32,000 1,200 Climbing FlightAware ADS-B (YPLB)
09:41PM -32.8496 153.3278 47° Northeast 494 568 32,100 960 Climbing FlightAware ADS-B (YPLB)
09:42PM -32.8092 153.3814 47° Northeast 485 558 32,800 720 Climbing Aus ATC (RADAR)
09:42PM -32.7877 153.4088 47° Northeast 500 575 32,600 120 Descending FlightAware ADS-B (YPLB)
09:42PM -32.7510 153.4567 48° Northeast 502 578 32,900 900 Climbing FlightAware ADS-B (YSSY / SYD)
09:43PM -32.6780 153.5519 47° Northeast 501 577 33,700 1,020 Climbing FlightAware ADS-B (YPLB)
09:43PM -32.6564 153.5801 48° Northeast 501 577 34,000 960 Climbing FlightAware ADS-B (YSSY / SYD)
09:44PM -32.5848 153.6735 47° Northeast 499 574 34,700 1,140 Climbing FlightAware ADS-B (YPLB)
09:44PM -32.5524 153.7155 47° Northeast 499 574 35,000 300 Climbing FlightAware ADS-B (YPLB)
09:45PM -32.4896 153.7973 47° Northeast 501 577 35,000 540 Level FlightAware ADS-B (YPLB)
09:45PM -32.5024 153.7812 47° Northeast 499 574 35,400  Climbing Aus ATC (RADAR)
09:45PM -32.4441 153.8563 47° Northeast 501 577 35,000 -480 Descending FlightAware ADS-B (YPLB)
09:46PM -32.3975 153.9167 47° Northeast 501 577 35,000 360 Level FlightAware ADS-B (YPLB)
09:46PM -32.3621 153.9635 47° Northeast 500 575 35,400  Climbing Aus ATC (RADAR)
09:46PM -32.3337 153.9995 47° Northeast 500 575 35,000 -600 Descending FlightAware ADS-B (YPLB)
09:47PM -32.2728 154.0777 47° Northeast 498 573 35,000  Level FlightAware ADS-B (YPLB)
09:48PM -32.2259 154.1377 47° Northeast 496 571 35,000  Level FlightAware ADS-B (YPLB)
09:48PM -32.1495 154.2357 47° Northeast 495 570 35,000  Level FlightAware ADS-B (YPLB)
09:49PM -32.1057 154.2923 47° Northeast 494 568 35,000  Level FlightAware ADS-B (YPLB)
09:50PM -32.0270 154.3932 47° Northeast 494 568 35,000  Level FlightAware ADS-B (YPLB)
09:50PM -31.9761 154.4580 47° Northeast 494 568 35,000  Level FlightAware ADS-B (YPLB)
09:52PM -31.8524 154.6147 47° Northeast 498 573 35,000  Level FlightAware ADS-B (YPLB)
09:52PM -31.7922 154.6909 47° Northeast 499 574 35,000 540 Level FlightAware ADS-B (YPLB)
09:52PM -31.8058 154.6736 47° Northeast 484 557 35,400 540 Climbing Aus ATC (RADAR)
09:53PM -31.7476 154.7481 47° Northeast 498 573 35,400  Level Aus ATC (RADAR)
09:53PM -31.6925 154.8174 47° Northeast 497 572 35,400  Level Aus ATC (RADAR)
09:54PM -31.6374 154.8869 47° Northeast 498 573 35,400 -120 Level Aus ATC (RADAR)
09:55PM -31.5663 154.9767 47° Northeast 500 575 35,300  Descending Aus ATC (RADAR)
09:55PM -31.5268 155.0263 47° Northeast 501 577 35,400  Climbing Aus ATC (RADAR)
09:56PM -31.4714 155.0959 47° Northeast 501 577 35,300 -600 Descending Aus ATC (RADAR)
09:56PM -31.4402 155.1343 47° Northeast 504 580 35,000 -420 Descending FlightAware ADS-B (YPLB)
09:57PM -31.3824 155.2065 46° Northeast 506 582 35,000 300 Level FlightAware ADS-B (YPLB)
09:57PM -31.3554 155.2403 46° Northeast 488 562 35,400 360 Climbing Aus ATC (RADAR)
09:57PM -31.3276 155.2751 47° Northeast 503 579 35,300  Descending Aus ATC (RADAR)
09:58PM -31.2670 155.3503 47° Northeast 490 564 35,400 60 Climbing Aus ATC (RADAR)
09:59PM -31.1914 155.4447 47° Northeast 507 583 35,400  Level Aus ATC (RADAR)
09:59PM -31.1348 155.5149 47° Northeast 509 586 35,400  Level Aus ATC (RADAR)
10:00PM -31.0736 155.5906 47° Northeast 490 564 35,400  Level Aus ATC (RADAR)
10:00PM -31.0247 155.6505 46° Northeast 493 567 35,400  Level Aus ATC (RADAR)
10:02PM -30.8983 155.8066 47° Northeast 514 592 35,400  Level Aus ATC (RADAR)
10:02PM -30.8490 155.8670 46° Northeast 515 593 35,400 -120 Level Aus ATC (RADAR)
10:03PM -30.8162 155.9073 47° Northeast 515 593 35,300 -120 Descending Aus ATC (RADAR)
10:03PM -30.7615 155.9811 49° Northeast 516 594 35,300  Level Aus ATC (RADAR)
10:04PM -30.6906 156.0751 49° Northeast 516 594 35,300  Level Aus ATC (RADAR)
10:05PM -30.6272 156.1591 49° Northeast 518 596 35,300  Level Aus ATC (RADAR)
10:05PM -30.5392 156.2751 49° Northeast 521 600 35,300  Level Aus ATC (RADAR)
10:06PM -30.5152 156.3067 49° Northeast 522 601 35,300 -60 Level Aus ATC (RADAR)
10:07PM -30.3614 156.5079 49° Northeast 527 606 35,200 -60 Descending Aus ATC (RADAR)
10:08PM -30.3288 156.5506 48° Northeast 528 608 35,200  Level Aus ATC (RADAR)
10:08PM -30.2717 156.6252 48° Northeast 529 609 35,200  Level Aus ATC (RADAR)
10:09PM -30.1979 156.7208 48° Northeast 530 610 35,200  Level Aus ATC (RADAR)
10:10PM -30.1320 156.8064 48° Northeast 531 611 35,200  Level Aus ATC (RADAR)
10:11PM -30.0401 156.9250 48° Northeast 537 618 35,200  Level Aus ATC (RADAR)
10:11PM -30.0153 156.9571 48° Northeast 538 619 35,200  Level Aus ATC (RADAR)
10:12PM -29.9329 157.0644 48° Northeast 536 617 35,200  Level Aus ATC (RADAR)
10:12PM -29.8740 157.1397 48° Northeast 537 618 35,200  Level Aus ATC (RADAR)
10:13PM -29.8074 157.2251 48° Northeast 536 617 35,200  Level Aus ATC (RADAR)
10:13PM -29.7574 157.2888 48° Northeast 536 617 35,200  Level Aus ATC (RADAR)
10:14PM -29.6742 157.3959 48° Northeast 537 618 35,200  Level Aus ATC (RADAR)
10:15PM -29.6159 157.4707 48° Northeast 536 617 35,200  Level Aus ATC (RADAR)
10:16PM -29.5336 157.5763 48° Northeast 532 612 35,200  Level Aus ATC (RADAR)
10:16PM -29.4416 157.6928 48° Northeast 534 615 35,200  Level Aus ATC (RADAR)
10:17PM -29.3829 157.7668 48° Northeast 534 615 35,200  Level Aus ATC (RADAR)
10:17PM -29.3578 157.7985 48° Northeast 534 615 35,200  Level Aus ATC (RADAR)
10:18PM -29.3008 157.8716 48° Northeast 529 609 35,200  Level Aus ATC (RADAR)
10:19PM -29.2118 157.9847 48° Northeast 522 601 35,200  Level Aus ATC (RADAR)
10:19PM -29.1453 158.0668 47° Northeast 521 600 35,200  Level Aus ATC (RADAR)
10:20PM -29.0621 158.1683 47° Northeast 521 600 35,200  Level Aus ATC (RADAR)
10:21PM -29.0373 158.1980 46° Northeast 521 600 35,200  Level Aus ATC (RADAR)
10:26PM -28.5487 158.8083 47° Northeast 35,000 -60 Descending Aus ATC (Calculated)
10:28PM -28.3744 159.0238 47° Northeast  Level FlightAware Approximate
10:28PM -28.3279 159.0811 47° Northeast 35,000  Level Aus ATC (Calculated)
10:28PM -28.2542 159.1718 47° Northeast 35,000  Level Aus ATC (Calculated)
10:29PM -28.1535 159.2948 287° West 35,000  Level Aus ATC (Calculated)
10:30PM -28.1103 159.1359 348° North  Level FlightAware Approximate
10:31PM -28.1819 159.2602 47° Northeast  Level FlightAware Approximate
10:31PM -28.0559 159.4138 47° Northeast 35,000  Level Aus ATC (Calculated)
10:33PM -27.8944 159.6097 47° Northeast  Level FlightAware Approximate
10:34PM -27.8029 159.7203 47° Northeast  Level FlightAware Approximate
10:35PM -27.7113 159.8307 47° Northeast  Level FlightAware Approximate
10:36PM -27.6196 159.9410 47° Northeast  Level FlightAware Approximate
10:36PM -27.5338 160.0439 47° Northeast 35,000  Level Aus ATC (Calculated)
10:36PM -27.4944 160.0911 47° Northeast 35,000  Level Aus ATC (Calculated)
10:38PM -27.3535 160.2594 47° Northeast  Level FlightAware Approximate
10:39PM -27.2614 160.3690 47° Northeast  Level FlightAware Approximate
10:39PM -27.1834 160.4616 47° Northeast 35,000  Level Aus ATC (Calculated)
10:39PM -27.1152 160.5424 47° Northeast 35,000  Level Aus ATC (Calculated)
10:41PM -27.0153 160.6606 47° Northeast  Level FlightAware Approximate
10:41PM -26.9169 160.7766 226° Southwest 35,000  Level Aus ATC (Calculated)
10:42PM -26.9230 160.7695 46° Northeast  Level FlightAware Approximate
10:43PM -26.8168 160.8944 46° Northeast  Level FlightAware Approximate
10:43PM -26.7969 160.9178 46° Northeast 35,000  Level Aus ATC (Calculated)
10:43PM -26.6842 161.0498 226° Southwest 35,000  Level Aus ATC (Calculated)
10:44PM -26.7043 161.0262 46° Northeast  Level FlightAware Approximate
10:45PM -26.5839 161.1670 46° Northeast  Level FlightAware Approximate
10:45PM -26.5785 161.1733 46° Northeast 35,000  Level Aus ATC (Calculated)
10:47PM -26.3960 161.3857 46° Northeast  Level FlightAware Approximate
10:48PM -26.3032 161.4934 46° Northeast  Level FlightAware Approximate
10:49PM -26.2102 161.6009 46° Northeast  Level FlightAware Approximate
10:50PM -26.1171 161.7083 46° Northeast  Level FlightAware Approximate
10:51PM -26.0240 161.8154 46° Northeast  Level FlightAware Approximate
10:52PM -25.9308 161.9225 46° Northeast  Level FlightAware Approximate
10:53PM -25.8375 162.0293 46° Northeast  Level FlightAware Approximate
10:54PM -25.7442 162.1360 46° Northeast  Level FlightAware Approximate
10:55PM -25.6507 162.2425 46° Northeast  Level FlightAware Approximate
10:55PM -25.5320 162.3775 46° Northeast 35,000  Level Aus ATC (Calculated)
10:56PM -25.4384 162.4837 46° Northeast  Level FlightAware Approximate
10:57PM -25.3447 162.5897 46° Northeast  Level FlightAware Approximate
10:58PM -25.2509 162.6955 46° Northeast  Level FlightAware Approximate
10:59PM -25.1571 162.8011 46° Northeast  Level FlightAware Approximate
11:00PM -25.0632 162.9066 46° Northeast  Level FlightAware Approximate
11:01PM -24.9692 163.0119 45° Northeast  Level FlightAware Approximate
11:02PM -24.8750 163.1170 45° Northeast  Level FlightAware Approximate
11:03PM -24.7808 163.2219 45° Northeast  Level FlightAware Approximate
11:04PM -24.6865 163.3267 45° Northeast  Level FlightAware Approximate
11:05PM -24.5922 163.4313 45° Northeast  Level FlightAware Approximate
11:06PM -24.4977 163.5357 45° Northeast  Level FlightAware Approximate
11:07PM -24.4032 163.6400 45° Northeast  Level FlightAware Approximate
11:08PM -24.3087 163.7441 45° Northeast  Level FlightAware Approximate
11:09PM -24.2140 163.8481 45° Northeast  Level FlightAware Approximate
11:10PM -24.1193 163.9519 45° Northeast  Level FlightAware Approximate
11:11PM -24.0245 164.0556 45° Northeast  Level FlightAware Approximate
11:12PM -23.9297 164.1591 45° Northeast  Level FlightAware Approximate
11:13PM -23.8347 164.2625 45° Northeast  Level FlightAware Approximate
11:14PM -23.7397 164.3657 45° Northeast  Level FlightAware Approximate
11:15PM -23.6447 164.4687 45° Northeast  Level FlightAware Approximate
11:16PM -23.5496 164.5716 45° Northeast  Level FlightAware Approximate
11:17PM -23.4544 164.6744 45° Northeast  Level FlightAware Approximate
11:18PM -23.3591 164.7770 45° Northeast  Level FlightAware Approximate
11:19PM -23.2637 164.8794 45° Northeast  Level FlightAware Approximate
11:20PM -23.1683 164.9817 45° Northeast  Level FlightAware Approximate
11:21PM -23.0734 165.0833 45° Northeast  Level FlightAware Approximate
11:22PM -22.9784 165.1846 45° Northeast  Level FlightAware Approximate
11:23PM -22.8834 165.2859 44° Northeast  Level FlightAware Approximate
11:24PM -22.7883 165.3870 44° Northeast  Level FlightAware Approximate
11:25PM -22.6931 165.4880 44° Northeast  Level FlightAware Approximate
11:26PM -22.5979 165.5888 44° Northeast  Level FlightAware Approximate
11:27PM -22.5026 165.6895 44° Northeast  Level FlightAware Approximate
11:28PM -22.4072 165.7900 44° Northeast  Level FlightAware Approximate
11:29PM -22.3118 165.8904 44° Northeast  Level FlightAware Approximate
11:30PM -22.2163 165.9907 44° Northeast  Level FlightAware Approximate
11:31PM -22.1207 166.0909 44° Northeast  Level FlightAware Approximate
11:32PM -22.0251 166.1909 44° Northeast  Level FlightAware Approximate
11:33PM -21.9089 166.2579 24° Northeast  Level FlightAware Approximate
11:34PM -21.7873 166.3163 24° Northeast  Level FlightAware Approximate
11:35PM -21.6656 166.3745 24° Northeast  Level FlightAware Approximate
11:36PM -21.5439 166.4326 24° Northeast  Level FlightAware Approximate
11:37PM -21.4222 166.4906 24° Northeast  Level FlightAware Approximate
11:38PM -21.3005 166.5485 24° Northeast  Level FlightAware Approximate
11:39PM -21.1787 166.6064 24° Northeast  Level FlightAware Approximate
11:40PM -21.0569 166.6641 24° Northeast  Level FlightAware Approximate
11:41PM -20.9352 166.7217 24° Northeast  Level FlightAware Approximate
11:42PM -20.8134 166.7793 24° Northeast  Level FlightAware Approximate
11:43PM -20.6915 166.8367 24° Northeast  Level FlightAware Approximate
11:44PM -20.5697 166.8940 24° Northeast  Level FlightAware Approximate
11:45PM -20.4478 166.9513 24° Northeast  Level FlightAware Approximate
11:46PM -20.3259 167.0085 24° Northeast  Level FlightAware Approximate
11:47PM -20.2040 167.0656 24° Northeast  Level FlightAware Approximate
11:48PM -20.0821 167.1226 24° Northeast  Level FlightAware Approximate
11:49PM -19.9601 167.1795 24° Northeast  Level FlightAware Approximate
11:50PM -19.8382 167.2363 24° Northeast  Level FlightAware Approximate
11:51PM -19.7162 167.2930 24° Northeast  Level FlightAware Approximate
11:52PM -19.5942 167.3497 24° Northeast  Level FlightAware Approximate
11:53PM -19.4722 167.4063 24° Northeast  Level FlightAware Approximate
11:54PM -19.3503 167.4632 24° Northeast  Level FlightAware Approximate
11:55PM -19.2285 167.5200 24° Northeast  Level FlightAware Approximate
11:56PM -19.1066 167.5767 24° Northeast  Level FlightAware Approximate
11:57PM -18.9846 167.6333 24° Northeast  Level FlightAware Approximate
11:58PM -18.8627 167.6898 24° Northeast  Level FlightAware Approximate
11:59PM -18.7407 167.7462 24° Northeast  Level FlightAware Approximate
12:00AM -18.6188 167.8026 24° Northeast  Level FlightAware Approximate
12:01AM -18.4968 167.8590 24° Northeast  Level FlightAware Approximate
12:02AM -18.3749 167.9155 24° Northeast  Level FlightAware Approximate
12:03AM -18.2530 167.9719 24° Northeast  Level FlightAware Approximate
12:04AM -18.1311 168.0282 24° Northeast  Level FlightAware Approximate
12:05AM -18.0091 168.0844 24° Northeast  Level FlightAware Approximate
12:06AM -17.8872 168.1405 24° Northeast  Level FlightAware Approximate
12:07AM -17.7652 168.1966 24° Northeast  Level FlightAware Approximate
12:08AM -17.6621 168.2439 24° Northeast  Level FlightAware Approximate
12:09AM -17.6993 168.3198 117° Southeast  Level Estimated
12:10AM -17.6993 168.3198 24° Northeast  Level Estimated
12:11AM -17.6993 168.3198 North  Level Estimated
12:12AM -17.6993 168.3198 24° Northeast  Level Estimated
12:13AM -17.6993 168.3198 North  Level Estimated
12:14AM -17.6993 168.3198 24° Northeast  Level Estimated
12:15AM -17.6993 168.3198 North  Level Estimated
12:16AM -17.6993 168.3198 24° Northeast  Level Estimated
12:17AM -17.6993 168.3198 North  Level Estimated
12:18AM -17.6993 168.3198 24° Northeast  Level Estimated
12:19AM -17.6993 168.3198 North  Level Estimated
12:20AM -17.6993 168.3198 24° Northeast  Level Estimated
12:21AM -17.6993 168.3198 North  Level Estimated
12:22AM -17.6993 168.3198 24° Northeast  Level Estimated
12:23AM -17.6993 168.3198 North  Level Estimated
12:24AM -17.6993 168.3198 24° Northeast  Level Estimated
12:25AM -17.6993 168.3198 North  Level Estimated